createdAt,value
2023-02-22T00:02:45.617Z,2.70
2023-02-22T00:05:45.321Z,2.50
2023-02-22T00:08:43.161Z,1.70
2023-02-22T00:11:40.793Z,1.90
2023-02-22T00:32:51.298Z,2.90
2023-02-22T00:35:48.738Z,2.50
2023-02-22T00:38:46.388Z,2.20
2023-02-22T00:41:43.924Z,3.30
2023-02-22T00:44:41.782Z,2.70
2023-02-22T00:47:39.255Z,2.50
2023-02-22T00:50:36.988Z,2.20
2023-02-22T00:53:34.479Z,1.70
2023-02-22T00:56:31.912Z,2.10
2023-02-22T00:59:31.473Z,2.10
2023-02-22T01:02:28.957Z,3.60
2023-02-22T01:05:27.545Z,2.40
2023-02-22T01:08:25.902Z,2.70
2023-02-22T01:11:23.936Z,3.10
2023-02-22T01:14:21.689Z,2.20
2023-02-22T01:17:19.123Z,1.90
2023-02-22T01:20:16.895Z,3.30
2023-02-22T01:23:14.333Z,2.20
2023-02-22T01:26:12.173Z,2.20
2023-02-22T01:29:10.138Z,2.40
2023-02-22T01:32:08.062Z,2.10
2023-02-22T01:35:06.124Z,2.00
2023-02-22T01:38:03.868Z,1.80
2023-02-22T01:41:01.557Z,2.20
2023-02-22T01:43:59.026Z,1.40
2023-02-22T01:46:56.816Z,1.80
2023-02-22T01:49:54.269Z,2.90
2023-02-22T01:52:51.905Z,2.40
2023-02-22T01:55:50.320Z,2.60
2023-02-22T01:58:47.755Z,1.80
2023-02-22T02:01:45.585Z,2.10
2023-02-22T02:04:43.794Z,2.40
2023-02-22T02:07:41.583Z,1.80
2023-02-22T02:10:39.065Z,2.10
2023-02-22T02:13:36.715Z,1.60
2023-02-22T02:16:34.746Z,2.00
2023-02-22T02:19:32.251Z,2.20
2023-02-22T02:22:30.329Z,1.70
2023-02-22T02:25:28.015Z,3.50
2023-02-22T02:28:25.736Z,2.00
2023-02-22T02:31:23.179Z,1.90
2023-02-22T02:34:22.209Z,2.00
2023-02-22T02:37:19.987Z,3.50
2023-02-22T02:40:18.811Z,3.20
2023-02-22T02:43:16.641Z,1.60
2023-02-22T02:46:14.070Z,4.50
2023-02-22T02:49:12.180Z,1.70
2023-02-22T02:52:09.617Z,2.40
2023-02-22T02:55:07.355Z,1.80
2023-02-22T02:58:06.192Z,3.90
2023-02-22T03:01:04.520Z,4.30
2023-02-22T03:04:03.358Z,2.70
2023-02-22T03:07:00.840Z,3.40
2023-02-22T03:09:58.924Z,3.20
2023-02-22T03:12:56.415Z,3.10
2023-02-22T03:15:54.233Z,1.90
2023-02-22T03:18:52.071Z,3.20
2023-02-22T03:21:49.542Z,3.00
2023-02-22T03:24:53.226Z,2.70
2023-02-22T03:27:50.688Z,4.20
2023-02-22T03:30:48.381Z,2.20
2023-02-22T03:33:46.065Z,3.20
2023-02-22T03:36:43.495Z,3.40
2023-02-22T03:39:42.419Z,1.80
2023-02-22T03:42:40.933Z,2.50
2023-02-22T03:45:38.603Z,1.80
2023-02-22T03:48:36.238Z,1.90
2023-02-22T03:51:33.986Z,2.80
2023-02-22T03:54:31.791Z,1.60
2023-02-22T03:57:29.286Z,2.30
2023-02-22T04:00:27.462Z,3.30
2023-02-22T04:03:24.924Z,2.40
2023-02-22T04:06:22.718Z,3.50
2023-02-22T04:09:20.469Z,2.40
2023-02-22T04:12:18.003Z,1.90
2023-02-22T04:15:16.126Z,2.40
2023-02-22T04:18:14.255Z,3.30
2023-02-22T04:21:12.078Z,1.90
2023-02-22T04:24:09.549Z,2.50
2023-02-22T04:27:07.174Z,2.40
2023-02-22T04:30:04.965Z,2.40
2023-02-22T04:33:02.426Z,1.70
2023-02-22T04:36:00.098Z,3.20
2023-02-22T04:38:57.571Z,3.80
2023-02-22T04:41:55.434Z,5.30
2023-02-22T04:44:52.888Z,2.30
2023-02-22T04:47:50.500Z,2.80
2023-02-22T04:50:48.458Z,3.50
2023-02-22T04:53:45.916Z,3.90
2023-02-22T04:56:43.584Z,3.30
2023-02-22T04:59:41.066Z,2.10
2023-02-22T05:02:39.404Z,3.80
2023-02-22T05:05:36.925Z,4.40
2023-02-22T05:08:34.660Z,2.10
2023-02-22T05:11:32.445Z,3.70
2023-02-22T05:14:29.875Z,3.60
2023-02-22T05:17:28.008Z,7.50
2023-02-22T05:20:25.469Z,2.30
2023-02-22T05:23:23.544Z,3.10
2023-02-22T05:26:21.002Z,5.80
2023-02-22T05:29:18.614Z,3.90
2023-02-22T05:32:16.117Z,3.40
2023-02-22T05:35:14.004Z,3.30
2023-02-22T05:38:11.613Z,3.90
2023-02-22T05:41:09.062Z,3.40
2023-02-22T05:44:06.684Z,2.30
2023-02-22T05:47:04.718Z,2.80
2023-02-22T05:50:02.983Z,3.50
2023-02-22T05:53:00.455Z,2.60
2023-02-22T05:55:58.297Z,3.10
2023-02-22T05:58:55.940Z,3.20
2023-02-22T06:01:53.478Z,3.00
2023-02-22T06:04:51.252Z,2.80
2023-02-22T06:07:48.708Z,2.20
2023-02-22T06:10:46.488Z,3.80
2023-02-22T06:13:43.964Z,2.10
2023-02-22T06:16:41.628Z,3.40
2023-02-22T06:19:39.375Z,2.20
2023-02-22T06:22:36.819Z,2.50
2023-02-22T06:25:34.516Z,3.60
2023-02-22T06:28:32.016Z,6.20
2023-02-22T06:31:29.836Z,2.80
2023-02-22T06:34:27.344Z,3.40
2023-02-22T06:37:25.040Z,3.10
2023-02-22T06:40:22.813Z,3.60
2023-02-22T06:43:20.336Z,8.10
2023-02-22T06:46:18.025Z,4.50
2023-02-22T06:49:15.483Z,3.30
2023-02-22T06:52:13.256Z,4.80
2023-02-22T06:55:10.828Z,4.30
2023-02-22T06:58:08.701Z,5.70
2023-02-22T07:01:08.339Z,4.70
2023-02-22T07:04:05.871Z,7.40
2023-02-22T07:07:03.658Z,6.30
2023-02-22T07:10:02.394Z,8.30
2023-02-22T07:13:00.360Z,16.00
2023-02-22T07:15:57.871Z,4.40
2023-02-22T07:18:56.419Z,3.40
2023-02-22T07:25:17.973Z,16.70
2023-02-22T07:28:15.732Z,8.30
2023-02-22T07:31:13.234Z,8.00
2023-02-22T07:34:11.155Z,33.50
2023-02-22T07:37:08.673Z,12.20
2023-02-22T07:40:06.580Z,3.70
2023-02-22T07:43:06.774Z,4.10
2023-02-22T07:46:04.710Z,3.10
2023-02-22T07:49:02.503Z,4.10
2023-02-22T07:51:59.981Z,3.30
2023-02-22T07:54:57.680Z,4.50
2023-02-22T07:57:55.179Z,4.50
2023-02-22T08:00:53.127Z,3.40
2023-02-22T08:03:50.645Z,3.30
2023-02-22T08:06:49.887Z,3.10
2023-02-22T08:09:47.754Z,3.40
2023-02-22T08:12:45.516Z,2.50
2023-02-22T08:15:44.625Z,4.50
2023-02-22T08:18:42.333Z,4.60
2023-02-22T08:21:40.261Z,3.40
2023-02-22T08:24:37.862Z,2.50
2023-02-22T08:27:35.801Z,3.40
2023-02-22T08:30:35.099Z,2.40
2023-02-22T08:33:32.672Z,5.40
2023-02-22T08:36:30.875Z,5.00
2023-02-22T08:39:28.451Z,3.10
2023-02-22T08:42:26.211Z,1.90
2023-02-22T08:45:24.056Z,3.40
2023-02-22T08:48:21.645Z,2.70
2023-02-22T08:51:19.469Z,1.80
2023-02-22T08:54:18.367Z,2.70
2023-02-22T08:57:16.136Z,2.60
2023-02-22T09:00:13.737Z,2.70
2023-02-22T09:03:12.800Z,1.70
2023-02-22T09:06:11.420Z,2.20
2023-02-22T09:09:08.988Z,1.90
2023-02-22T09:12:06.810Z,2.10
2023-02-22T09:15:04.290Z,1.70
2023-02-22T09:18:02.077Z,2.00
2023-02-22T09:20:59.606Z,2.50
2023-02-22T09:23:57.417Z,3.30
2023-02-22T09:26:55.140Z,1.90
2023-02-22T09:29:53.239Z,2.30
2023-02-22T09:32:51.173Z,1.60
2023-02-22T09:35:49.935Z,1.80
2023-02-22T09:38:47.610Z,1.80
2023-02-22T09:41:45.080Z,6.20
2023-02-22T09:44:42.772Z,2.70
2023-02-22T09:47:40.281Z,1.50
2023-02-22T09:50:38.035Z,7.60
2023-02-22T09:53:36.411Z,8.40
2023-02-22T09:56:33.978Z,3.60
2023-02-22T09:59:32.134Z,2.40
2023-02-22T10:02:29.701Z,3.70
2023-02-22T10:05:28.206Z,2.00
2023-02-22T10:08:25.643Z,4.20
2023-02-22T10:11:23.546Z,1.80
2023-02-22T10:14:22.813Z,2.40
2023-02-22T10:17:20.289Z,2.30
2023-02-22T10:20:17.754Z,5.10
2023-02-22T10:23:15.170Z,5.20
2023-02-22T10:26:13.192Z,1.70
2023-02-22T10:29:10.681Z,19.00
2023-02-22T10:32:08.473Z,2.30
2023-02-22T10:35:06.350Z,2.70
2023-02-22T10:38:05.586Z,6.80
2023-02-22T10:41:03.349Z,4.90
2023-02-22T10:44:00.861Z,2.80
2023-02-22T10:46:58.503Z,3.50
2023-02-22T10:49:56.256Z,3.90
2023-02-22T10:52:55.267Z,2.30
2023-02-22T10:55:53.083Z,3.70
2023-02-22T10:58:50.745Z,3.00
2023-02-22T11:01:48.600Z,2.10
2023-02-22T11:04:46.145Z,3.00
2023-02-22T11:07:44.116Z,2.20
2023-02-22T11:10:43.383Z,2.80
2023-02-22T11:13:41.051Z,4.40
2023-02-22T11:16:38.959Z,2.20
2023-02-22T11:19:38.534Z,2.20
2023-02-22T11:22:36.169Z,2.90
2023-02-22T11:25:33.625Z,3.30
2023-02-22T11:28:33.370Z,3.10
2023-02-22T11:31:31.783Z,2.80
2023-02-22T11:34:30.224Z,3.00
2023-02-22T11:37:29.634Z,2.60
2023-02-22T11:40:27.627Z,3.00
2023-02-22T11:43:25.324Z,3.00
2023-02-22T11:46:22.924Z,2.00
2023-02-22T11:49:20.843Z,2.30
2023-02-22T11:52:18.534Z,3.80
2023-02-22T11:55:36.284Z,2.90
2023-02-22T11:58:39.146Z,4.20
2023-02-22T12:01:36.703Z,4.00
2023-02-22T12:04:34.613Z,3.30
2023-02-22T12:07:32.205Z,2.90
2023-02-22T12:10:30.465Z,3.10
2023-02-22T12:13:27.944Z,2.40
2023-02-22T12:16:26.204Z,3.60
2023-02-22T12:19:24.785Z,3.00
2023-02-22T12:22:22.513Z,2.10
2023-02-22T12:25:20.947Z,2.40
2023-02-22T12:28:24.813Z,2.80
2023-02-22T12:31:23.561Z,3.50
2023-02-22T12:34:22.003Z,3.50
2023-02-22T12:37:19.681Z,3.30
2023-02-22T12:40:17.448Z,4.00
2023-02-22T12:43:16.770Z,9.30
2023-02-22T12:46:15.571Z,4.90
2023-02-22T12:49:14.056Z,3.10
2023-02-22T12:52:21.223Z,5.80
2023-02-22T12:55:19.252Z,3.40
2023-02-22T12:58:17.039Z,6.30
2023-02-22T13:01:14.850Z,4.20
2023-02-22T13:04:20.546Z,3.50
2023-02-22T13:07:19.179Z,3.00
2023-02-22T13:10:16.693Z,3.70
2023-02-22T13:13:14.345Z,2.80
2023-02-22T13:16:11.825Z,4.60
2023-02-22T13:19:09.988Z,3.70
2023-02-22T13:22:07.812Z,3.90
2023-02-22T13:25:05.265Z,4.30
2023-02-22T13:28:02.904Z,3.30
2023-02-22T13:31:00.398Z,2.80
2023-02-22T13:33:58.096Z,3.60
2023-02-22T13:36:55.715Z,3.70
2023-02-22T13:39:55.021Z,3.60
2023-02-22T13:42:52.471Z,3.60
2023-02-22T13:45:50.114Z,4.40
2023-02-22T13:48:47.894Z,4.60
2023-02-22T13:51:45.376Z,3.10
2023-02-22T13:54:42.841Z,3.40
2023-02-22T13:57:40.573Z,3.20
2023-02-22T14:00:38.328Z,3.30
2023-02-22T14:03:40.732Z,3.20
2023-02-22T14:06:39.078Z,3.50
2023-02-22T14:09:36.560Z,3.10
2023-02-22T14:12:34.410Z,2.90
2023-02-22T14:15:33.344Z,4.50
2023-02-22T14:18:30.853Z,3.50
2023-02-22T14:21:28.504Z,3.10
2023-02-22T14:24:25.973Z,3.80
2023-02-22T14:27:24.418Z,4.40
2023-02-22T14:30:26.117Z,4.60
2023-02-22T14:33:24.043Z,4.20
2023-02-22T14:36:22.737Z,3.80
2023-02-22T14:39:20.244Z,3.50
2023-02-22T14:42:18.451Z,3.90
2023-02-22T14:45:17.183Z,3.70
2023-02-22T14:48:14.864Z,3.40
2023-02-22T14:51:21.504Z,5.20
2023-02-22T14:54:20.792Z,7.50
2023-02-22T14:57:18.234Z,4.30
2023-02-22T15:00:20.309Z,4.20
2023-02-22T15:03:18.101Z,6.90
2023-02-22T15:06:15.966Z,4.70
2023-02-22T15:09:14.646Z,4.30
2023-02-22T15:12:13.057Z,4.50
2023-02-22T15:15:13.161Z,5.30
2023-02-22T15:18:11.540Z,4.70
2023-02-22T15:21:10.531Z,4.90
2023-02-22T15:24:09.525Z,5.70
2023-02-22T15:27:07.034Z,3.90
2023-02-22T15:30:07.199Z,4.00
2023-02-22T15:33:04.992Z,5.50
2023-02-22T15:36:02.884Z,4.20
2023-02-22T15:39:00.528Z,6.50
2023-02-22T15:41:58.002Z,5.90
2023-02-22T15:44:56.017Z,2.80
2023-02-22T15:47:54.571Z,4.30
2023-02-22T15:50:53.131Z,4.10
2023-02-22T15:53:50.922Z,9.40
2023-02-22T15:56:48.657Z,5.40
2023-02-22T15:59:46.257Z,4.90
2023-02-22T16:02:44.533Z,3.60
2023-02-22T16:05:42.288Z,5.30
2023-02-22T16:08:53.726Z,4.70
2023-02-22T16:14:52.514Z,4.60
2023-02-22T16:18:01.364Z,4.90
2023-02-22T16:20:59.713Z,6.20
2023-02-22T16:24:10.324Z,4.30
2023-02-22T16:27:13.993Z,5.20
2023-02-22T16:30:23.402Z,3.90
2023-02-22T16:33:22.576Z,3.80
2023-02-22T16:36:20.962Z,6.40
2023-02-22T16:39:20.127Z,3.80
2023-02-22T16:42:24.465Z,5.40
2023-02-22T16:45:22.022Z,5.90
2023-02-22T16:48:21.900Z,4.70
2023-02-22T16:51:20.477Z,4.30
2023-02-22T16:54:18.779Z,5.40
2023-02-22T16:57:16.267Z,6.90
2023-02-22T17:00:15.461Z,8.50
2023-02-22T17:03:13.276Z,7.40
2023-02-22T17:06:11.700Z,6.50
2023-02-22T17:09:10.401Z,6.50
2023-02-22T17:12:07.889Z,6.60
2023-02-22T17:15:07.319Z,8.30
2023-02-22T17:18:05.098Z,7.50
2023-02-22T17:21:06.616Z,7.60
2023-02-22T17:24:06.321Z,8.10
2023-02-22T17:27:04.174Z,7.00
2023-02-22T17:30:03.794Z,7.40
2023-02-22T17:33:03.879Z,7.80
2023-02-22T17:36:03.236Z,11.20
2023-02-22T17:39:02.248Z,7.70
2023-02-22T17:42:00.300Z,11.60
2023-02-22T17:44:58.410Z,9.00
2023-02-22T17:48:00.433Z,8.20
2023-02-22T17:50:58.941Z,8.80
2023-02-22T17:53:57.779Z,8.30
2023-02-22T17:56:58.706Z,9.70
2023-02-22T17:59:57.870Z,9.50
2023-02-22T18:03:00.189Z,10.90
2023-02-22T18:06:01.816Z,7.80
2023-02-22T18:08:59.622Z,8.60
2023-02-22T18:11:58.560Z,9.00
2023-02-22T18:14:56.737Z,9.70
2023-02-22T18:17:55.912Z,9.90
2023-02-22T18:21:00.187Z,9.40
2023-02-22T18:23:58.950Z,7.60
2023-02-22T18:26:57.739Z,7.00
2023-02-22T18:29:55.789Z,9.70
2023-02-22T18:32:54.521Z,8.30
2023-02-22T18:35:55.826Z,7.70
2023-02-22T18:38:54.492Z,9.40
2023-02-22T18:41:52.764Z,7.30
2023-02-22T18:44:51.721Z,8.70
2023-02-22T18:47:50.004Z,10.30
2023-02-22T18:50:49.260Z,10.40
2023-02-22T18:53:48.146Z,11.10
2023-02-22T18:56:46.474Z,12.70
2023-02-22T18:59:45.670Z,14.90
2023-02-22T19:02:45.418Z,14.50
2023-02-22T19:05:45.951Z,13.20
2023-02-22T19:08:44.601Z,12.10
2023-02-22T19:11:45.738Z,11.50
2023-02-22T19:14:44.723Z,13.40
2023-02-22T19:17:46.861Z,10.90
2023-02-22T19:20:49.227Z,10.60
2023-02-22T19:23:49.191Z,11.80
2023-02-22T19:26:54.550Z,14.80
2023-02-22T19:29:53.369Z,10.30
2023-02-22T19:32:53.576Z,10.80
2023-02-22T19:35:53.045Z,12.50
2023-02-22T19:38:52.185Z,11.10
2023-02-22T19:41:53.761Z,11.90
2023-02-22T19:44:53.737Z,13.00
2023-02-22T19:47:54.608Z,11.90
2023-02-22T19:50:58.472Z,11.00
2023-02-22T19:53:57.400Z,11.00
2023-02-22T19:56:59.511Z,12.90
2023-02-22T19:59:59.425Z,13.00
2023-02-22T20:03:06.471Z,13.40
2023-02-22T20:06:05.604Z,11.70
2023-02-22T20:09:04.671Z,10.70
2023-02-22T20:12:05.265Z,13.30
2023-02-22T20:15:04.191Z,11.40
2023-02-22T20:18:03.307Z,11.10
2023-02-22T20:21:04.321Z,12.10
2023-02-22T20:24:03.641Z,10.30
2023-02-22T20:27:02.844Z,12.10
2023-02-22T20:30:03.565Z,12.00
2023-02-22T20:33:04.678Z,12.40
2023-02-22T20:36:04.644Z,11.90
2023-02-22T20:39:03.575Z,11.00
2023-02-22T20:42:09.699Z,11.70
2023-02-22T20:45:11.909Z,12.70
2023-02-22T20:48:09.918Z,14.00
2023-02-22T20:51:09.044Z,12.00
2023-02-22T20:54:09.214Z,11.60
2023-02-22T20:57:09.772Z,15.40
2023-02-22T21:00:10.698Z,13.50
2023-02-22T21:03:09.841Z,17.50
2023-02-22T21:06:08.024Z,15.20
2023-02-22T21:09:08.988Z,21.70
2023-02-22T21:12:14.206Z,28.80
2023-02-22T21:15:15.029Z,26.90
2023-02-22T21:18:15.744Z,26.00
2023-02-22T21:21:14.614Z,21.40
2023-02-22T21:24:13.264Z,20.80
2023-02-22T21:27:13.071Z,18.90
2023-02-22T21:30:11.668Z,19.90
2023-02-22T21:33:09.943Z,18.60
2023-02-22T21:36:11.582Z,19.10
2023-02-22T21:39:11.189Z,21.10
2023-02-22T21:42:09.077Z,22.90
2023-02-22T21:45:09.932Z,21.30
2023-02-22T21:48:10.848Z,23.20
2023-02-22T21:51:08.695Z,22.00
2023-02-22T21:54:06.342Z,18.20
2023-02-22T21:57:06.366Z,17.70
2023-02-22T22:00:14.556Z,23.50
2023-02-22T22:03:20.326Z,19.30
2023-02-22T22:06:17.944Z,17.20
2023-02-22T22:09:23.831Z,21.30
2023-02-22T22:12:26.038Z,18.30
2023-02-22T22:15:26.384Z,15.50
2023-02-22T22:18:24.417Z,21.20
2023-02-22T22:21:23.211Z,17.30
2023-02-22T22:24:21.482Z,20.50
2023-02-22T22:27:19.212Z,19.30
2023-02-22T22:30:18.509Z,25.20
2023-02-22T22:33:15.972Z,22.40
2023-02-22T22:36:13.738Z,22.50
2023-02-22T22:39:13.954Z,21.80
2023-02-22T22:42:11.732Z,18.00
2023-02-22T22:45:11.784Z,20.40
2023-02-22T22:48:15.048Z,18.50
2023-02-22T22:51:12.517Z,16.30
2023-02-22T22:54:10.884Z,18.30
2023-02-22T22:57:08.652Z,17.70
2023-02-22T23:00:25.795Z,15.40
2023-02-22T23:03:24.135Z,16.70
2023-02-22T23:06:25.036Z,16.20
2023-02-22T23:09:22.751Z,16.30
2023-02-22T23:12:23.941Z,18.70
2023-02-22T23:15:21.778Z,19.40
2023-02-22T23:18:20.866Z,17.00
2023-02-22T23:21:18.550Z,17.00
2023-02-22T23:24:16.634Z,19.90
2023-02-22T23:27:14.125Z,18.40
2023-02-22T23:30:15.220Z,19.90
2023-02-22T23:33:13.139Z,15.80
2023-02-22T23:36:12.658Z,19.50
2023-02-22T23:39:10.170Z,17.80
2023-02-22T23:42:09.161Z,17.00
2023-02-22T23:45:08.167Z,18.70
2023-02-22T23:48:05.657Z,19.00
2023-02-22T23:51:07.226Z,13.40
2023-02-22T23:54:06.241Z,21.50
2023-02-22T23:57:04.653Z,18.50
